sensor_id;sensor_type;location;lat;lon;timestamp;pressure;altitude;pressure_sealevel;temperature;humidity
50652;BME280;61429;52.086;5.240;2022-08-14T00:03:26;101091.0;;;24.27;41.65
50652;BME280;61429;52.086;5.240;2022-08-14T00:05:16;101087.0;;;24.4;41.37
50652;BME280;61429;52.086;5.240;2022-08-14T00:07:07;101086.0;;;24.42;41.37
50652;BME280;61429;52.086;5.240;2022-08-14T00:08:54;101088.0;;;24.41;41.42
50652;BME280;61429;52.086;5.240;2022-08-14T00:10:42;101080.0;;;24.31;41.76
50652;BME280;61429;52.086;5.240;2022-08-14T00:12:31;101076.0;;;24.34;41.75
50652;BME280;61429;52.086;5.240;2022-08-14T00:14:20;101069.0;;;24.21;42.12
50652;BME280;61429;52.086;5.240;2022-08-14T00:17:54;101074.0;;;24.2;42.26
50652;BME280;61429;52.086;5.240;2022-08-14T00:19:42;101071.0;;;24.23;42.31
50652;BME280;61429;52.086;5.240;2022-08-14T00:21:29;101071.0;;;24.05;42.78
50652;BME280;61429;52.086;5.240;2022-08-14T00:23:17;101065.0;;;24.16;42.61
50652;BME280;61429;52.086;5.240;2022-08-14T00:25:04;101069.0;;;24.0;43.12
50652;BME280;61429;52.086;5.240;2022-08-14T00:26:52;101069.0;;;23.92;43.34
50652;BME280;61429;52.086;5.240;2022-08-14T00:30:26;101068.0;;;23.96;43.33
50652;BME280;61429;52.086;5.240;2022-08-14T00:32:12;101061.0;;;23.78;43.79
50652;BME280;61429;52.086;5.240;2022-08-14T00:34:00;101058.0;;;23.85;43.75
50652;BME280;61429;52.086;5.240;2022-08-14T00:35:47;101055.0;;;24.02;43.41
50652;BME280;61429;52.086;5.240;2022-08-14T00:37:36;101053.0;;;23.89;43.76
50652;BME280;61429;52.086;5.240;2022-08-14T00:39:24;101055.0;;;23.84;44.01
50652;BME280;61429;52.086;5.240;2022-08-14T00:42:58;101051.0;;;23.7;44.35
50652;BME280;61429;52.086;5.240;2022-08-14T00:44:45;101051.0;;;23.84;44.09
50652;BME280;61429;52.086;5.240;2022-08-14T00:46:32;101042.0;;;23.66;44.54
50652;BME280;61429;52.086;5.240;2022-08-14T00:48:20;101040.0;;;23.65;44.74
50652;BME280;61429;52.086;5.240;2022-08-14T00:50:10;101039.0;;;23.62;44.83
50652;BME280;61429;52.086;5.240;2022-08-14T00:51:59;101033.0;;;23.49;45.23
50652;BME280;61429;52.086;5.240;2022-08-14T00:55:41;101039.0;;;23.43;45.47
50652;BME280;61429;52.086;5.240;2022-08-14T00:57:32;101035.0;;;23.44;45.53
50652;BME280;61429;52.086;5.240;2022-08-14T00:59:19;101028.0;;;23.45;45.58
50652;BME280;61429;52.086;5.240;2022-08-14T01:01:09;101031.0;;;23.27;46.13
50652;BME280;61429;52.086;5.240;2022-08-14T01:02:56;101030.0;;;23.46;45.86
50652;BME280;61429;52.086;5.240;2022-08-14T01:04:44;101023.0;;;23.36;46.17
50652;BME280;61429;52.086;5.240;2022-08-14T01:06:34;101027.0;;;23.36;46.31
50652;BME280;61429;52.086;5.240;2022-08-14T01:10:12;101027.0;;;23.41;46.27
50652;BME280;61429;52.086;5.240;2022-08-14T01:11:59;101022.0;;;23.24;46.74
50652;BME280;61429;52.086;5.240;2022-08-14T01:13:47;101020.0;;;23.34;46.63
50652;BME280;61429;52.086;5.240;2022-08-14T01:15:34;101015.0;;;23.15;47.24
50652;BME280;61429;52.086;5.240;2022-08-14T01:17:22;101016.0;;;23.14;47.37
50652;BME280;61429;52.086;5.240;2022-08-14T01:22:13;101013.0;;;23.28;47.24
50652;BME280;61429;52.086;5.240;2022-08-14T01:24:00;101010.0;;;23.15;47.6
50652;BME280;61429;52.086;5.240;2022-08-14T01:25:50;101005.0;;;23.18;47.65
50652;BME280;61429;52.086;5.240;2022-08-14T01:27:38;101002.0;;;23.21;47.63
50652;BME280;61429;52.086;5.240;2022-08-14T01:29:33;100996.0;;;23.12;47.95
50652;BME280;61429;52.086;5.240;2022-08-14T01:33:12;100994.0;;;23.1;48.09
50652;BME280;61429;52.086;5.240;2022-08-14T01:34:58;100994.0;;;23.13;48.05
50652;BME280;61429;52.086;5.240;2022-08-14T01:36:45;100991.0;;;22.92;48.72
50652;BME280;61429;52.086;5.240;2022-08-14T01:38:34;100985.0;;;22.95;48.72
50652;BME280;61429;52.086;5.240;2022-08-14T01:40:22;100986.0;;;23.1;48.47
50652;BME280;61429;52.086;5.240;2022-08-14T01:42:10;100988.0;;;23.02;48.73
50652;BME280;61429;52.086;5.240;2022-08-14T01:45:52;100991.0;;;22.94;48.99
50652;BME280;61429;52.086;5.240;2022-08-14T01:47:39;100989.0;;;23.09;48.71
50652;BME280;61429;52.086;5.240;2022-08-14T01:49:27;100986.0;;;22.84;49.42
50652;BME280;61429;52.086;5.240;2022-08-14T01:51:20;100986.0;;;22.76;49.78
50652;BME280;61429;52.086;5.240;2022-08-14T01:53:09;100980.0;;;22.97;49.26
50652;BME280;61429;52.086;5.240;2022-08-14T01:54:56;100981.0;;;22.76;49.9
50652;BME280;61429;52.086;5.240;2022-08-14T01:56:43;100980.0;;;22.83;49.79
50652;BME280;61429;52.086;5.240;2022-08-14T02:00:18;100982.0;;;22.81;49.94
50652;BME280;61429;52.086;5.240;2022-08-14T02:02:11;100980.0;;;22.76;50.11
50652;BME280;61429;52.086;5.240;2022-08-14T02:03:58;100971.0;;;22.82;49.96
50652;BME280;61429;52.086;5.240;2022-08-14T02:05:46;100972.0;;;22.75;50.18
50652;BME280;61429;52.086;5.240;2022-08-14T02:07:36;100969.0;;;22.93;49.82
50652;BME280;61429;52.086;5.240;2022-08-14T02:09:23;100969.0;;;22.99;49.76
50652;BME280;61429;52.086;5.240;2022-08-14T02:13:14;100966.0;;;22.96;49.81
50652;BME280;61429;52.086;5.240;2022-08-14T02:15:03;100963.0;;;22.83;50.19
50652;BME280;61429;52.086;5.240;2022-08-14T02:16:52;100965.0;;;22.82;50.25
50652;BME280;61429;52.086;5.240;2022-08-14T02:18:39;100970.0;;;22.72;50.58
50652;BME280;61429;52.086;5.240;2022-08-14T02:20:28;100967.0;;;22.92;50.06
50652;BME280;61429;52.086;5.240;2022-08-14T02:22:18;100968.0;;;22.86;50.24
50652;BME280;61429;52.086;5.240;2022-08-14T02:24:05;100966.0;;;22.86;50.3
50652;BME280;61429;52.086;5.240;2022-08-14T02:27:41;100970.0;;;22.75;50.59
50652;BME280;61429;52.086;5.240;2022-08-14T02:29:29;100969.0;;;22.95;50.15
50652;BME280;61429;52.086;5.240;2022-08-14T02:31:17;100969.0;;;22.92;50.2
50652;BME280;61429;52.086;5.240;2022-08-14T02:33:06;100967.0;;;22.81;50.44
50652;BME280;61429;52.086;5.240;2022-08-14T02:34:53;100967.0;;;23.24;49.26
50652;BME280;61429;52.086;5.240;2022-08-14T02:36:40;100965.0;;;23.11;49.73
50652;BME280;61429;52.086;5.240;2022-08-14T02:40:15;100969.0;;;22.77;50.6
50652;BME280;61429;52.086;5.240;2022-08-14T02:42:01;100969.0;;;22.65;50.97
50652;BME280;61429;52.086;5.240;2022-08-14T02:43:50;100964.0;;;22.45;51.66
50652;BME280;61429;52.086;5.240;2022-08-14T02:45:37;100963.0;;;22.57;51.36
50652;BME280;61429;52.086;5.240;2022-08-14T02:47:25;100964.0;;;22.63;51.27
50652;BME280;61429;52.086;5.240;2022-08-14T02:49:13;100967.0;;;22.65;51.19
50652;BME280;61429;52.086;5.240;2022-08-14T02:52:52;100965.0;;;22.51;51.56
50652;BME280;61429;52.086;5.240;2022-08-14T02:54:40;100969.0;;;22.57;51.56
50652;BME280;61429;52.086;5.240;2022-08-14T02:56:27;100962.0;;;22.66;51.26
50652;BME280;61429;52.086;5.240;2022-08-14T02:58:14;100959.0;;;22.5;51.66
50652;BME280;61429;52.086;5.240;2022-08-14T03:00:04;100959.0;;;22.47;51.82
50652;BME280;61429;52.086;5.240;2022-08-14T03:01:53;100957.0;;;22.54;51.73
50652;BME280;61429;52.086;5.240;2022-08-14T03:03:42;100955.0;;;22.56;51.65
50652;BME280;61429;52.086;5.240;2022-08-14T03:07:17;100955.0;;;22.56;51.73
50652;BME280;61429;52.086;5.240;2022-08-14T03:09:05;100951.0;;;22.37;52.23
50652;BME280;61429;52.086;5.240;2022-08-14T03:10:52;100949.0;;;22.32;52.37
50652;BME280;61429;52.086;5.240;2022-08-14T03:12:39;100947.0;;;22.13;52.98
50652;BME280;61429;52.086;5.240;2022-08-14T03:14:25;100947.0;;;22.44;52.21
50652;BME280;61429;52.086;5.240;2022-08-14T03:18:10;100945.0;;;22.08;53.24
50652;BME280;61429;52.086;5.240;2022-08-14T03:19:56;100944.0;;;22.11;53.06
50652;BME280;61429;52.086;5.240;2022-08-14T03:21:44;100946.0;;;21.94;53.67
50652;BME280;61429;52.086;5.240;2022-08-14T03:23:33;100945.0;;;22.2;53.0
50652;BME280;61429;52.086;5.240;2022-08-14T03:25:22;100946.0;;;22.15;53.14
50652;BME280;61429;52.086;5.240;2022-08-14T03:27:14;100942.0;;;22.21;52.85
50652;BME280;61429;52.086;5.240;2022-08-14T03:29:02;100938.0;;;22.05;53.4
50652;BME280;61429;52.086;5.240;2022-08-14T03:30:50;100938.0;;;22.02;53.56
50652;BME280;61429;52.086;5.240;2022-08-14T03:34:24;100934.0;;;22.17;53.17
50652;BME280;61429;52.086;5.240;2022-08-14T03:36:15;100934.0;;;21.87;53.93
50652;BME280;61429;52.086;5.240;2022-08-14T03:38:04;100933.0;;;22.14;53.28
50652;BME280;61429;52.086;5.240;2022-08-14T03:39:53;100931.0;;;21.91;53.94
50652;BME280;61429;52.086;5.240;2022-08-14T03:41:40;100928.0;;;22.09;53.42
50652;BME280;61429;52.086;5.240;2022-08-14T03:43:26;100930.0;;;22.1;53.48
50652;BME280;61429;52.086;5.240;2022-08-14T03:47:03;100930.0;;;22.08;53.58
50652;BME280;61429;52.086;5.240;2022-08-14T03:48:50;100924.0;;;22.15;53.32
50652;BME280;61429;52.086;5.240;2022-08-14T03:50:37;100924.0;;;21.92;54.11
50652;BME280;61429;52.086;5.240;2022-08-14T03:52:24;100922.0;;;21.91;54.11
50652;BME280;61429;52.086;5.240;2022-08-14T03:54:11;100919.0;;;21.81;54.29
50652;BME280;61429;52.086;5.240;2022-08-14T03:55:58;100922.0;;;22.0;53.8
50652;BME280;61429;52.086;5.240;2022-08-14T03:59:34;100923.0;;;22.04;53.73
50652;BME280;61429;52.086;5.240;2022-08-14T04:01:24;100920.0;;;21.92;54.02
50652;BME280;61429;52.086;5.240;2022-08-14T04:03:12;100922.0;;;21.72;54.7
50652;BME280;61429;52.086;5.240;2022-08-14T04:05:00;100924.0;;;21.53;55.26
50652;BME280;61429;52.086;5.240;2022-08-14T04:06:46;100924.0;;;21.68;54.87
50652;BME280;61429;52.086;5.240;2022-08-14T04:08:34;100925.0;;;21.44;55.65
50652;BME280;61429;52.086;5.240;2022-08-14T04:12:08;100927.0;;;21.42;55.78
50652;BME280;61429;52.086;5.240;2022-08-14T04:13:56;100921.0;;;21.55;55.41
50652;BME280;61429;52.086;5.240;2022-08-14T04:15:43;100922.0;;;21.39;55.94
50652;BME280;61429;52.086;5.240;2022-08-14T04:17:32;100928.0;;;21.41;55.88
50652;BME280;61429;52.086;5.240;2022-08-14T04:19:22;100919.0;;;21.16;56.67
50652;BME280;61429;52.086;5.240;2022-08-14T04:21:10;100921.0;;;21.08;56.92
50652;BME280;61429;52.086;5.240;2022-08-14T04:24:45;100918.0;;;21.05;57.15
50652;BME280;61429;52.086;5.240;2022-08-14T04:26:32;100912.0;;;21.1;56.92
50652;BME280;61429;52.086;5.240;2022-08-14T04:28:20;100911.0;;;21.18;56.81
50652;BME280;61429;52.086;5.240;2022-08-14T04:30:08;100911.0;;;20.98;57.46
50652;BME280;61429;52.086;5.240;2022-08-14T04:31:55;100911.0;;;21.04;57.32
50652;BME280;61429;52.086;5.240;2022-08-14T04:33:42;100909.0;;;20.98;57.59
50652;BME280;61429;52.086;5.240;2022-08-14T04:43:39;100912.0;;;20.93;57.8
50652;BME280;61429;52.086;5.240;2022-08-14T04:45:35;100910.0;;;21.0;57.59
50652;BME280;61429;52.086;5.240;2022-08-14T04:48:27;100909.0;;;20.99;57.66
50652;BME280;61429;52.086;5.240;2022-08-14T04:50:14;100912.0;;;20.94;57.86
50652;BME280;61429;52.086;5.240;2022-08-14T04:52:03;100911.0;;;20.84;58.22
50652;BME280;61429;52.086;5.240;2022-08-14T04:53:50;100911.0;;;20.74;58.55
50652;BME280;61429;52.086;5.240;2022-08-14T04:55:39;100905.0;;;20.92;58.09
50652;BME280;61429;52.086;5.240;2022-08-14T04:57:26;100906.0;;;21.11;57.4
50652;BME280;61429;52.086;5.240;2022-08-14T04:59:13;100902.0;;;21.2;57.17
50652;BME280;61429;52.086;5.240;2022-08-14T05:01:03;100902.0;;;21.38;56.79
50652;BME280;61429;52.086;5.240;2022-08-14T05:04:41;100899.0;;;21.45;56.49
50652;BME280;61429;52.086;5.240;2022-08-14T05:06:28;100905.0;;;21.46;56.48
50652;BME280;61429;52.086;5.240;2022-08-14T05:08:15;100901.0;;;21.56;56.13
50652;BME280;61429;52.086;5.240;2022-08-14T05:10:04;100892.0;;;21.55;56.22
50652;BME280;61429;52.086;5.240;2022-08-14T05:11:52;100890.0;;;21.57;56.18
50652;BME280;61429;52.086;5.240;2022-08-14T05:13:39;100889.0;;;21.53;56.27
50652;BME280;61429;52.086;5.240;2022-08-14T05:15:31;100881.0;;;21.54;56.34
50652;BME280;61429;52.086;5.240;2022-08-14T05:19:08;100889.0;;;21.36;56.92
50652;BME280;61429;52.086;5.240;2022-08-14T05:20:55;100884.0;;;21.42;56.84
50652;BME280;61429;52.086;5.240;2022-08-14T05:22:44;100890.0;;;21.48;56.69
50652;BME280;61429;52.086;5.240;2022-08-14T05:24:30;100886.0;;;21.35;57.08
50652;BME280;61429;52.086;5.240;2022-08-14T05:26:20;100881.0;;;21.45;56.91
50652;BME280;61429;52.086;5.240;2022-08-14T05:28:08;100878.0;;;21.49;56.84
50652;BME280;61429;52.086;5.240;2022-08-14T05:31:42;100877.0;;;21.43;57.18
50652;BME280;61429;52.086;5.240;2022-08-14T05:33:30;100875.0;;;21.34;57.45
50652;BME280;61429;52.086;5.240;2022-08-14T05:35:20;100874.0;;;21.52;57.04
50652;BME280;61429;52.086;5.240;2022-08-14T05:37:07;100873.0;;;21.49;57.15
50652;BME280;61429;52.086;5.240;2022-08-14T05:38:54;100874.0;;;21.66;56.68
50652;BME280;61429;52.086;5.240;2022-08-14T05:40:41;100875.0;;;21.73;56.53
50652;BME280;61429;52.086;5.240;2022-08-14T05:44:15;100872.0;;;21.66;56.83
50652;BME280;61429;52.086;5.240;2022-08-14T05:46:02;100868.0;;;21.7;56.79
50652;BME280;61429;52.086;5.240;2022-08-14T05:47:49;100868.0;;;21.81;56.54
50652;BME280;61429;52.086;5.240;2022-08-14T05:49:36;100866.0;;;21.9;56.23
50652;BME280;61429;52.086;5.240;2022-08-14T05:51:24;100869.0;;;22.05;55.75
50652;BME280;61429;52.086;5.240;2022-08-14T05:53:12;100869.0;;;21.96;56.06
50652;BME280;61429;52.086;5.240;2022-08-14T05:56:46;100866.0;;;22.04;55.87
50652;BME280;61429;52.086;5.240;2022-08-14T05:58:32;100864.0;;;22.16;55.52
50652;BME280;61429;52.086;5.240;2022-08-14T06:00:21;100866.0;;;22.21;55.52
50652;BME280;61429;52.086;5.240;2022-08-14T06:02:09;100864.0;;;22.17;55.62
50652;BME280;61429;52.086;5.240;2022-08-14T06:03:56;100867.0;;;22.07;55.93
50652;BME280;61429;52.086;5.240;2022-08-14T06:05:45;100864.0;;;22.23;55.48
50652;BME280;61429;52.086;5.240;2022-08-14T06:09:21;100869.0;;;22.24;55.53
50652;BME280;61429;52.086;5.240;2022-08-14T06:11:09;100860.0;;;22.4;55.04
50652;BME280;61429;52.086;5.240;2022-08-14T06:12:57;100862.0;;;22.39;55.15
50652;BME280;61429;52.086;5.240;2022-08-14T06:14:43;100863.0;;;22.42;55.16
50652;BME280;61429;52.086;5.240;2022-08-14T06:16:29;100861.0;;;22.46;54.95
50652;BME280;61429;52.086;5.240;2022-08-14T06:18:17;100860.0;;;22.6;54.63
50652;BME280;61429;52.086;5.240;2022-08-14T06:21:50;100860.0;;;22.62;54.55
50652;BME280;61429;52.086;5.240;2022-08-14T06:23:37;100859.0;;;22.65;54.54
50652;BME280;61429;52.086;5.240;2022-08-14T06:25:25;100862.0;;;22.81;54.12
50652;BME280;61429;52.086;5.240;2022-08-14T06:27:11;100862.0;;;22.89;53.83
50652;BME280;61429;52.086;5.240;2022-08-14T06:28:59;100862.0;;;22.91;53.89
50652;BME280;61429;52.086;5.240;2022-08-14T06:30:46;100858.0;;;22.95;53.74
50652;BME280;61429;52.086;5.240;2022-08-14T06:34:20;100862.0;;;23.07;53.42
50652;BME280;61429;52.086;5.240;2022-08-14T06:36:07;100859.0;;;23.25;53.09
50652;BME280;61429;52.086;5.240;2022-08-14T06:37:56;100859.0;;;23.35;52.83
50652;BME280;61429;52.086;5.240;2022-08-14T06:39:45;100859.0;;;23.53;52.32
50652;BME280;61429;52.086;5.240;2022-08-14T06:41:33;100862.0;;;23.55;52.29
50652;BME280;61429;52.086;5.240;2022-08-14T06:43:20;100861.0;;;23.67;52.01
50652;BME280;61429;52.086;5.240;2022-08-14T06:46:55;100863.0;;;23.68;51.9
50652;BME280;61429;52.086;5.240;2022-08-14T06:48:41;100859.0;;;23.76;51.51
50652;BME280;61429;52.086;5.240;2022-08-14T06:50:30;100860.0;;;23.89;51.27
50652;BME280;61429;52.086;5.240;2022-08-14T06:52:17;100867.0;;;23.93;51.22
50652;BME280;61429;52.086;5.240;2022-08-14T06:54:04;100867.0;;;23.95;51.28
50652;BME280;61429;52.086;5.240;2022-08-14T06:57:39;100863.0;;;24.13;50.86
50652;BME280;61429;52.086;5.240;2022-08-14T06:59:27;100860.0;;;24.07;50.92
50652;BME280;61429;52.086;5.240;2022-08-14T07:07:36;100845.0;;;24.37;50.38
50652;BME280;61429;52.086;5.240;2022-08-14T07:09:23;100843.0;;;24.54;50.05
50652;BME280;61429;52.086;5.240;2022-08-14T07:11:11;100841.0;;;24.51;50.02
50652;BME280;61429;52.086;5.240;2022-08-14T07:12:59;100836.0;;;24.47;50.14
50652;BME280;61429;52.086;5.240;2022-08-14T07:14:46;100833.0;;;24.7;49.63
50652;BME280;61429;52.086;5.240;2022-08-14T07:18:21;100830.0;;;24.83;49.34
50652;BME280;61429;52.086;5.240;2022-08-14T07:20:10;100831.0;;;24.92;49.13
50652;BME280;61429;52.086;5.240;2022-08-14T07:21:58;100832.0;;;24.99;48.99
50652;BME280;61429;52.086;5.240;2022-08-14T07:23:45;100837.0;;;25.1;48.86
50652;BME280;61429;52.086;5.240;2022-08-14T07:25:33;100836.0;;;25.12;48.71
50652;BME280;61429;52.086;5.240;2022-08-14T07:27:20;100831.0;;;25.13;48.78
50652;BME280;61429;52.086;5.240;2022-08-14T07:30:58;100831.0;;;25.18;48.55
50652;BME280;61429;52.086;5.240;2022-08-14T07:32:46;100832.0;;;25.25;48.3
50652;BME280;61429;52.086;5.240;2022-08-14T07:34:33;100831.0;;;25.39;48.24
50652;BME280;61429;52.086;5.240;2022-08-14T07:36:20;100830.0;;;25.54;47.8
50652;BME280;61429;52.086;5.240;2022-08-14T07:38:15;100827.0;;;25.68;47.19
50652;BME280;61429;52.086;5.240;2022-08-14T07:40:04;100823.0;;;25.78;46.76
50652;BME280;61429;52.086;5.240;2022-08-14T07:43:39;100824.0;;;25.9;46.5
50652;BME280;61429;52.086;5.240;2022-08-14T07:45:27;100821.0;;;25.86;46.25
50652;BME280;61429;52.086;5.240;2022-08-14T07:47:16;100824.0;;;25.97;45.71
50652;BME280;61429;52.086;5.240;2022-08-14T07:49:03;100827.0;;;26.12;44.96
50652;BME280;61429;52.086;5.240;2022-08-14T07:50:51;100826.0;;;26.13;44.93
50652;BME280;61429;52.086;5.240;2022-08-14T07:52:40;100823.0;;;26.28;44.6
50652;BME280;61429;52.086;5.240;2022-08-14T07:54:28;100821.0;;;26.38;44.34
50652;BME280;61429;52.086;5.240;2022-08-14T07:58:03;100825.0;;;26.59;43.94
50652;BME280;61429;52.086;5.240;2022-08-14T07:59:50;100824.0;;;26.54;43.75
50652;BME280;61429;52.086;5.240;2022-08-14T08:01:39;100827.0;;;26.52;43.88
50652;BME280;61429;52.086;5.240;2022-08-14T08:03:27;100826.0;;;26.61;43.5
50652;BME280;61429;52.086;5.240;2022-08-14T08:05:20;100825.0;;;26.7;43.3
50652;BME280;61429;52.086;5.240;2022-08-14T08:07:08;100822.0;;;26.92;42.72
50652;BME280;61429;52.086;5.240;2022-08-14T08:10:46;100812.0;;;26.98;42.65
50652;BME280;61429;52.086;5.240;2022-08-14T08:12:34;100809.0;;;27.16;42.11
50652;BME280;61429;52.086;5.240;2022-08-14T08:14:21;100810.0;;;27.17;41.54
50652;BME280;61429;52.086;5.240;2022-08-14T08:16:08;100807.0;;;27.28;41.92
50652;BME280;61429;52.086;5.240;2022-08-14T08:17:55;100802.0;;;27.43;41.69
50652;BME280;61429;52.086;5.240;2022-08-14T08:19:42;100798.0;;;27.44;41.89
50652;BME280;61429;52.086;5.240;2022-08-14T08:23:18;100796.0;;;27.48;41.49
50652;BME280;61429;52.086;5.240;2022-08-14T08:25:06;100795.0;;;27.5;41.16
50652;BME280;61429;52.086;5.240;2022-08-14T08:26:53;100797.0;;;27.59;41.35
50652;BME280;61429;52.086;5.240;2022-08-14T08:28:40;100797.0;;;27.67;42.02
50652;BME280;61429;52.086;5.240;2022-08-14T08:30:29;100796.0;;;27.87;41.8
50652;BME280;61429;52.086;5.240;2022-08-14T08:32:17;100794.0;;;27.84;42.35
50652;BME280;61429;52.086;5.240;2022-08-14T08:35:56;100790.0;;;27.97;42.28
50652;BME280;61429;52.086;5.240;2022-08-14T08:37:44;100787.0;;;27.9;42.32
50652;BME280;61429;52.086;5.240;2022-08-14T08:39:41;100780.0;;;28.02;42.24
50652;BME280;61429;52.086;5.240;2022-08-14T08:41:39;100784.0;;;28.03;42.7
50652;BME280;61429;52.086;5.240;2022-08-14T08:43:28;100787.0;;;27.87;43.13
50652;BME280;61429;52.086;5.240;2022-08-14T08:45:17;100787.0;;;27.86;43.09
50652;BME280;61429;52.086;5.240;2022-08-14T08:47:07;100791.0;;;27.86;43.31
50652;BME280;61429;52.086;5.240;2022-08-14T08:48:55;100795.0;;;27.94;42.96
50652;BME280;61429;52.086;5.240;2022-08-14T08:52:29;100793.0;;;28.04;42.51
50652;BME280;61429;52.086;5.240;2022-08-14T08:54:15;100798.0;;;27.81;43.17
50652;BME280;61429;52.086;5.240;2022-08-14T08:56:02;100797.0;;;27.95;42.97
50652;BME280;61429;52.086;5.240;2022-08-14T08:57:53;100799.0;;;28.22;42.45
50652;BME280;61429;52.086;5.240;2022-08-14T08:59:41;100797.0;;;28.29;42.19
50652;BME280;61429;52.086;5.240;2022-08-14T09:01:29;100794.0;;;28.32;42.1
50652;BME280;61429;52.086;5.240;2022-08-14T09:05:06;100785.0;;;28.37;41.53
50652;BME280;61429;52.086;5.240;2022-08-14T09:06:54;100784.0;;;28.22;41.74
50652;BME280;61429;52.086;5.240;2022-08-14T09:08:44;100777.0;;;28.44;41.18
50652;BME280;61429;52.086;5.240;2022-08-14T09:10:31;100775.0;;;28.57;40.96
50652;BME280;61429;52.086;5.240;2022-08-14T09:12:18;100771.0;;;28.74;40.81
50652;BME280;61429;52.086;5.240;2022-08-14T09:14:06;100766.0;;;28.8;40.83
50652;BME280;61429;52.086;5.240;2022-08-14T09:17:42;100764.0;;;28.58;41.0
50652;BME280;61429;52.086;5.240;2022-08-14T09:19:30;100770.0;;;28.75;40.68
50652;BME280;61429;52.086;5.240;2022-08-14T09:21:18;100769.0;;;28.79;40.44
50652;BME280;61429;52.086;5.240;2022-08-14T09:23:07;100766.0;;;28.93;39.28
50652;BME280;61429;52.086;5.240;2022-08-14T09:24:55;100769.0;;;28.99;39.71
50652;BME280;61429;52.086;5.240;2022-08-14T09:26:44;100774.0;;;28.96;38.43
50652;BME280;61429;52.086;5.240;2022-08-14T09:30:17;100774.0;;;28.88;37.83
50652;BME280;61429;52.086;5.240;2022-08-14T09:32:04;100769.0;;;28.86;37.96
50652;BME280;61429;52.086;5.240;2022-08-14T09:34:02;100756.0;;;28.98;37.9
50652;BME280;61429;52.086;5.240;2022-08-14T09:36:08;100752.0;;;28.98;38.78
50652;BME280;61429;52.086;5.240;2022-08-14T09:38:10;100749.0;;;29.05;37.19
50652;BME280;61429;52.086;5.240;2022-08-14T09:40:16;100752.0;;;29.11;37.42
50652;BME280;61429;52.086;5.240;2022-08-14T09:42:37;100746.0;;;29.14;36.46
50652;BME280;61429;52.086;5.240;2022-08-14T09:45:30;100742.0;;;29.28;35.85
50652;BME280;61429;52.086;5.240;2022-08-14T09:49:08;100742.0;;;29.39;36.0
50652;BME280;61429;52.086;5.240;2022-08-14T09:50:56;100739.0;;;29.42;36.1
50652;BME280;61429;52.086;5.240;2022-08-14T09:52:48;100731.0;;;29.53;35.42
50652;BME280;61429;52.086;5.240;2022-08-14T09:54:43;100733.0;;;29.68;35.24
50652;BME280;61429;52.086;5.240;2022-08-14T09:56:43;100733.0;;;29.58;34.17
50652;BME280;61429;52.086;5.240;2022-08-14T09:58:38;100730.0;;;29.63;33.78
50652;BME280;61429;52.086;5.240;2022-08-14T10:00:40;100725.0;;;29.57;34.53
50652;BME280;61429;52.086;5.240;2022-08-14T10:02:31;100721.0;;;29.6;35.29
50652;BME280;61429;52.086;5.240;2022-08-14T10:04:21;100717.0;;;29.71;35.17
50652;BME280;61429;52.086;5.240;2022-08-14T10:08:01;100717.0;;;29.85;34.08
50652;BME280;61429;52.086;5.240;2022-08-14T10:09:50;100712.0;;;29.88;34.03
50652;BME280;61429;52.086;5.240;2022-08-14T10:11:38;100710.0;;;29.94;34.65
50652;BME280;61429;52.086;5.240;2022-08-14T10:13:26;100702.0;;;29.85;34.08
50652;BME280;61429;52.086;5.240;2022-08-14T10:15:16;100701.0;;;30.07;34.56
50652;BME280;61429;52.086;5.240;2022-08-14T10:17:04;100702.0;;;30.14;34.53
50652;BME280;61429;52.086;5.240;2022-08-14T10:19:01;100701.0;;;30.13;33.64
50652;BME280;61429;52.086;5.240;2022-08-14T10:22:43;100698.0;;;30.19;33.46
50652;BME280;61429;52.086;5.240;2022-08-14T10:24:31;100699.0;;;30.31;33.72
50652;BME280;61429;52.086;5.240;2022-08-14T10:26:24;100689.0;;;30.42;33.6
50652;BME280;61429;52.086;5.240;2022-08-14T10:28:15;100686.0;;;30.3;32.58
50652;BME280;61429;52.086;5.240;2022-08-14T10:30:11;100685.0;;;30.16;32.71
50652;BME280;61429;52.086;5.240;2022-08-14T10:32:01;100684.0;;;30.2;33.26
50652;BME280;61429;52.086;5.240;2022-08-14T10:33:58;100687.0;;;30.14;33.37
50652;BME280;61429;52.086;5.240;2022-08-14T10:35:53;100681.0;;;30.12;33.39
50652;BME280;61429;52.086;5.240;2022-08-14T10:37:44;100676.0;;;30.29;33.6
50652;BME280;61429;52.086;5.240;2022-08-14T10:41:34;100671.0;;;30.4;33.24
50652;BME280;61429;52.086;5.240;2022-08-14T10:43:25;100662.0;;;30.3;33.31
50652;BME280;61429;52.086;5.240;2022-08-14T10:45:20;100672.0;;;30.47;33.36
50652;BME280;61429;52.086;5.240;2022-08-14T10:47:09;100669.0;;;30.33;33.85
50652;BME280;61429;52.086;5.240;2022-08-14T10:48:57;100666.0;;;30.51;33.78
50652;BME280;61429;52.086;5.240;2022-08-14T10:50:50;100659.0;;;30.52;32.6
50652;BME280;61429;52.086;5.240;2022-08-14T10:52:38;100658.0;;;30.52;32.71
50652;BME280;61429;52.086;5.240;2022-08-14T10:54:29;100661.0;;;30.62;32.78
50652;BME280;61429;52.086;5.240;2022-08-14T10:58:26;100657.0;;;30.58;32.55
50652;BME280;61429;52.086;5.240;2022-08-14T11:00:16;100657.0;;;30.61;32.51
50652;BME280;61429;52.086;5.240;2022-08-14T11:02:15;100655.0;;;30.66;32.68
50652;BME280;61429;52.086;5.240;2022-08-14T11:04:04;100651.0;;;30.68;32.24
50652;BME280;61429;52.086;5.240;2022-08-14T11:05:51;100650.0;;;30.73;31.91
50652;BME280;61429;52.086;5.240;2022-08-14T11:07:41;100643.0;;;30.64;32.55
50652;BME280;61429;52.086;5.240;2022-08-14T11:09:39;100645.0;;;30.74;32.46
50652;BME280;61429;52.086;5.240;2022-08-14T11:11:26;100637.0;;;30.8;31.99
50652;BME280;61429;52.086;5.240;2022-08-14T11:13:16;100631.0;;;30.88;32.22
50652;BME280;61429;52.086;5.240;2022-08-14T11:16:51;100634.0;;;30.98;32.05
50652;BME280;61429;52.086;5.240;2022-08-14T11:18:38;100633.0;;;30.98;32.24
50652;BME280;61429;52.086;5.240;2022-08-14T11:20:30;100634.0;;;31.18;31.98
50652;BME280;61429;52.086;5.240;2022-08-14T11:22:17;100638.0;;;31.21;32.03
50652;BME280;61429;52.086;5.240;2022-08-14T11:24:10;100634.0;;;31.21;32.04